Airport ICAO


11:55 UTC

25°C

Clear skies


An affordable passengers' Moving Map for your aircraft. Made for the iPad and the iPhone
More information here

LFLL Saint Exupery


Lyon FRANCE   VFR CAVOK


METAR LFLL 191130Z VRB01KT CAVOK 25/08 Q1026 NOSIG 0h25min

TAF LFLL 191100Z 1912/2018 VRB02KT CAVOK BECMG 1914/1916 36012KT BECMG 2000/2002 18010KT BECMG 2011/2013 VRB02KT BECMG 2016/2018 01012KT 0h55min





NOTAMS

OPEN